KQBL

Hurlbert

Hurlbert, Florida, USA
METAR KQBL 202256Z AUTO VRB03KT 10SM FEW023 29/24 A3007 RMK AO2 SLP184 WND DATA ESTMD T02930239
Observed Flight Rules
Aug-20 @ 22:56 UTC (an hour ago) Visual Flight Rules
Wind Visibility Clouds
Variable at 3 knots 10 miles
  • Few at 2,300' AGL
Temperatures Readings
Current 29°C / 84°F
Dewpoint 24°C / 75°F
Humidity 74%
Altimeter 30.07" Hg
Pressure 1018.4 hPa
METAR KQBL 202256Z AUTO VRB03KT 10SM FEW023 29/24 A3007 RMK AO2 SLP184 WND DATA ESTMD T02930239
Observed Flight Rules
Aug-20 @ 22:56 UTC
(an hour ago)
VFR
Wind Visibility
Variable at 3 knots 10 miles
Clouds
  • Few at 2,300' AGL
Temperature Dewpoint
29°C / 84°F 24°C / 75°F
Humidity Altimeter Pressure
74% 30.07" Hg 1018.4 hPa